Chetek, WI (54728)

2:17 PM CDT on September 20, 2014 (GMT -0500)
Chetek Municipal Southworth A | Change Station
CLOSE
Current Station
Airport
Location: Chetek Municipal Southworth A,
Elevation: 1053 ft
Nearby Weather Stations

Elev 1053 ft 45.31 °N, 91.64 °W | Updated 22 minutes ago

Mostly Cloudy
Mostly Cloudy
72 °F
Feels Like 72 °F
N
9
Wind Variable Wind from West
Gusts 18 mph

Today
High -- | Low -- °F
--% Chance of Precip.
Yesterday
High -- | Low -- °F
Precip. -- in
6:51 AM 7:08 PM
Waning Crescent, 11% visible
Pressure 29.75 in
Visibility 10.0 miles
Clouds Mostly Cloudy 3700 ft
Mostly Cloudy 4200 ft
Dew Point 57 °F
Humidity 58%
Rainfall 0.00 in
Snow Depth Not available.
UV 3 out of 12
Pollen 1.80 out of 12
Air Quality Not available.
Flu Activity Not available.
METAR KY23 201855Z AUTO 27008G16KT 10SM BKN037 BKN042 22/14 A2975 RMK AO2 T02240137

More Conditions Fewer Conditions

Pressure 29.75 in
Visibility 10.0 miles
Clouds Mostly Cloudy 3700 ft
Mostly Cloudy 4200 ft
Dew Point 57 °F
Humidity 58%
Rainfall 0.00 in
Snow Depth Not available.
UV 3 out of 12
Pollen 1.80 out of 12
Air Quality Not available.
Flu Activity Not available.
METAR KY23 201855Z AUTO 27008G16KT 10SM BKN037 BKN042 22/14 A2975 RMK AO2 T02240137

More Conditions Fewer Conditions

10-Day Weather Forecast

Almanac

Astronomy

Sep. 20, 2014 Rise Set
Actual Time 6:51 AM CDT 7:08 PM CDT
Civil Twilight 6:21 AM CDT 7:37 PM CDT
Nautical Twilight 5:46 AM CDT 8:12 PM CDT
Astronomical Twilight 5:11 AM CDT 8:47 PM CDT
Moon 3:23 AM CDT 5:17 PM CDT
Length of Visible Light 13h 15m
Length of Day
12h 16m
Tomorrow will be 3m 9s shorter.
Waning Crescent, 11% of the Moon is Illuminated
Today
Waning Crescent
Sep 24
New
Oct 1
First Quarter
Oct 8
Full
Oct 15
Last Quarter

Today's Extremes

State Highs State Lows

Community

WunderPhotos

Upload Photos

1,754,921 photos uploaded!

WunderBlogs® & News

Nearby

Snow Depth

Station Depth Elevation
No new snow has been reported.

Earthquake Activity

City Distance Mag. Time & Date
No recent earthquake activity has been reported nearby.
Minimum magnitude displayed is 2.5.

Coastal Water Temperatures

Place Temperature
No Stations Reporting

Nearby Weather Stations